Time;durP1;ratioP1;P1;durP2;ratioP2;P2;SDS_P1;SDS_P2;PMS_P1;PMS_P2;Temp;Humidity;BMP_temperature;BMP_pressure;BME280_temperature;BME280_humidity;BME280_pressure;Samples;Min_cycle;Max_cycle;Signal;HPM_P1;HPM_P2
2022/10/06 00:01:12;;;;;;;5.90;0.50;;;;;;;14.93;72.36;101897.81;7383710;19;20364;-69
2022/10/06 00:03:39;;;;;;;8.10;0.70;;;;;;;14.94;72.37;101909.25;7386905;19;20014;-69
2022/10/06 00:06:09;;;;;;;6.13;0.40;;;;;;;14.90;71.75;101914.06;7389860;19;20014;-69
2022/10/06 00:08:38;;;;;;;7.90;0.50;;;;;;;14.89;72.10;101922.97;7384207;19;20011;-68
2022/10/06 00:11:07;;;;;;;8.70;1.00;;;;;;;14.86;71.17;101933.06;7387311;19;20031;-68
2022/10/06 00:13:35;;;;;;;7.32;0.50;;;;;;;14.86;72.42;101938.38;7385183;19;20045;-68
2022/10/06 00:16:08;;;;;;;5.85;0.40;;;;;;;14.87;71.66;101943.53;7386429;19;20007;-68
2022/10/06 00:18:35;;;;;;;13.02;0.90;;;;;;;14.87;71.57;101951.47;7384204;19;20089;-71
2022/10/06 00:21:03;;;;;;;8.05;1.58;;;;;;;14.85;71.48;101948.13;7385141;19;20015;-69
2022/10/06 00:23:30;;;;;;;6.35;0.40;;;;;;;14.82;71.66;101951.09;7386803;19;20011;-67
2022/10/06 00:25:57;;;;;;;6.47;0.47;;;;;;;14.76;71.13;101956.16;7383724;19;20014;-68
2022/10/06 00:28:24;;;;;;;10.45;1.00;;;;;;;14.69;71.46;101950.63;7383546;19;20036;-68
2022/10/06 00:30:52;;;;;;;7.22;0.65;;;;;;;14.71;73.69;101963.75;7385153;19;20046;-67
2022/10/06 00:33:19;;;;;;;7.82;0.55;;;;;;;14.71;72.56;101964.56;7386607;19;20115;-68
2022/10/06 00:35:47;;;;;;;6.68;0.70;;;;;;;14.73;72.71;101961.78;7385391;19;20039;-68
2022/10/06 00:38:15;;;;;;;12.68;0.50;;;;;;;14.70;72.57;101960.25;7386679;19;20084;-68
2022/10/06 00:40:45;;;;;;;7.65;0.63;;;;;;;14.62;71.72;101968.13;7383017;19;20042;-67
2022/10/06 00:43:43;;;;;;;8.70;0.40;;;;;;;14.63;72.92;101975.06;7386338;19;20011;-67
2022/10/06 00:46:23;;;;;;;7.35;0.50;;;;;;;14.66;72.35;101984.56;7381949;19;20578;-67
2022/10/06 00:48:55;;;;;;;9.27;0.50;;;;;;;14.68;72.40;101982.59;7381776;19;20022;-68
2022/10/06 00:51:22;;;;;;;7.72;0.55;;;;;;;14.68;72.13;101985.25;7382819;19;20011;-69
2022/10/06 00:53:50;;;;;;;7.88;0.60;;;;;;;14.66;71.90;101984.56;7383360;19;20019;-67
2022/10/06 00:56:17;;;;;;;4.70;0.30;;;;;;;14.60;72.16;101985.16;7380215;19;20034;-68
2022/10/06 00:58:43;;;;;;;9.38;0.40;;;;;;;14.56;71.60;101984.63;7384760;19;20060;-68
2022/10/06 01:01:11;;;;;;;6.70;0.40;;;;;;;14.52;72.82;101992.03;7384599;19;20046;-68
2022/10/06 01:03:45;;;;;;;5.32;0.88;;;;;;;14.49;72.32;101997.63;7383895;19;20066;-68
2022/10/06 01:06:12;;;;;;;9.43;0.40;;;;;;;14.49;71.93;101994.97;7383534;19;20066;-68
2022/10/06 01:08:39;;;;;;;8.18;0.40;;;;;;;14.46;71.97;102003.22;7383000;19;20035;-68
2022/10/06 01:11:14;;;;;;;9.85;0.60;;;;;;;14.38;71.70;102007.56;7381706;19;20475;-68
2022/10/06 01:13:45;;;;;;;5.97;0.30;;;;;;;14.32;71.60;102011.66;7383747;19;20010;-69
2022/10/06 01:16:18;;;;;;;10.45;0.70;;;;;;;14.30;72.26;102018.06;7384028;19;20018;-68
2022/10/06 01:18:46;;;;;;;;;;;;;;;14.28;72.34;102020.84;7385086;19;20014;-68
2022/10/06 01:21:17;;;;;;;6.43;0.40;;;;;;;14.24;72.19;102027.41;7384094;19;20275;-69
2022/10/06 01:23:44;;;;;;;8.82;0.40;;;;;;;14.21;72.21;102037.47;7384790;19;20051;-68
2022/10/06 01:26:13;;;;;;;7.13;0.40;;;;;;;14.20;71.99;102036.66;7382450;19;20051;-69
2022/10/06 01:28:40;;;;;;;7.22;0.73;;;;;;;14.18;72.85;102046.53;7383839;19;20426;-69
2022/10/06 01:31:08;;;;;;;8.23;0.47;;;;;;;14.17;73.19;102044.84;7382453;19;20128;-69
2022/10/06 01:33:35;;;;;;;9.57;0.30;;;;;;;14.16;72.14;102053.81;7385282;19;20019;-68
2022/10/06 01:36:02;;;;;;;9.63;0.55;;;;;;;14.14;72.50;102051.28;7380008;19;20010;-68
2022/10/06 01:38:29;;;;;;;8.07;0.50;;;;;;;14.08;72.89;102051.88;7385233;19;20011;-68
2022/10/06 01:40:57;;;;;;;6.25;0.40;;;;;;;14.09;73.11;102052.69;7383842;19;20376;-68
2022/10/06 01:43:24;;;;;;;5.57;0.40;;;;;;;14.09;72.78;102050.91;7390996;19;20048;-68
2022/10/06 01:45:54;;;;;;;7.85;0.50;;;;;;;14.08;73.28;102043.09;7387383;19;20014;-69
2022/10/06 01:48:22;;;;;;;6.65;0.30;;;;;;;14.06;73.59;102050.38;7389645;19;20010;-67
2022/10/06 01:50:49;;;;;;;7.03;0.55;;;;;;;14.05;73.37;102046.88;7390299;19;20014;-67
2022/10/06 01:53:17;;;;;;;5.47;0.40;;;;;;;14.03;73.08;102054.13;7392126;19;20014;-68
2022/10/06 01:55:43;;;;;;;5.18;0.50;;;;;;;14.00;73.32;102049.13;7388827;19;20014;-68
2022/10/06 01:58:11;;;;;;;6.32;0.35;;;;;;;13.98;73.64;102048.41;7391632;19;20022;-68
2022/10/06 02:00:38;;;;;;;4.95;0.40;;;;;;;13.95;73.50;102050.53;7387949;19;20370;-71
2022/10/06 02:03:06;;;;;;;9.05;0.35;;;;;;;13.94;74.86;102057.63;7390274;19;20125;-68
2022/10/06 02:05:33;;;;;;;9.40;0.70;;;;;;;13.94;74.06;102060.28;7386882;19;20026;-69
2022/10/06 02:08:01;;;;;;;8.70;0.50;;;;;;;13.94;73.95;102056.78;7390863;19;20067;-68
2022/10/06 02:10:28;;;;;;;5.93;0.40;;;;;;;13.90;73.81;102053.63;7391457;19;20359;-67
2022/10/06 02:12:56;;;;;;;9.48;0.55;;;;;;;13.86;73.97;102059.34;7390196;19;20011;-69
2022/10/06 02:15:23;;;;;;;7.95;0.40;;;;;;;13.87;74.46;102063.63;7388303;19;20587;-69
2022/10/06 02:17:49;;;;;;;7.18;0.70;;;;;;;13.87;74.09;102076.84;7386579;19;20018;-70
2022/10/06 02:20:16;;;;;;;10.55;0.60;;;;;;;13.88;74.76;102071.44;7388189;19;20022;-68
2022/10/06 02:22:43;;;;;;;9.85;0.47;;;;;;;13.86;74.22;102068.13;7391053;19;20018;-68
2022/10/06 02:25:11;;;;;;;5.32;0.45;;;;;;;13.85;74.20;102071.72;7387263;19;20034;-68
2022/10/06 02:27:38;;;;;;;10.38;1.23;;;;;;;13.81;74.30;102062.41;7388833;19;20042;-68
2022/10/06 02:30:06;;;;;;;9.80;0.30;;;;;;;13.78;74.48;102070.63;7386783;19;20018;-69
2022/10/06 02:32:37;;;;;;;7.70;0.35;;;;;;;13.74;75.22;102082.47;7391574;19;20014;-67
2022/10/06 02:35:05;;;;;;;13.70;0.90;;;;;;;13.70;74.97;102071.34;7388181;19;20014;-69
2022/10/06 02:37:32;;;;;;;7.53;0.60;;;;;;;13.70;75.58;102091.69;7391409;19;20569;-68
2022/10/06 02:39:59;;;;;;;8.32;0.40;;;;;;;13.69;75.29;102076.78;7387123;19;20035;-68
2022/10/06 02:42:26;;;;;;;7.18;1.17;;;;;;;13.68;75.02;102086.53;7389951;19;20014;-68
2022/10/06 02:44:53;;;;;;;9.23;0.40;;;;;;;13.66;74.78;102091.09;7387572;19;20015;-68
2022/10/06 02:47:21;;;;;;;7.28;0.47;;;;;;;13.62;75.39;102091.53;7389299;19;20018;-67
2022/10/06 02:49:48;;;;;;;5.47;0.30;;;;;;;13.61;75.48;102093.34;7388259;19;20384;-69
2022/10/06 02:52:23;;;;;;;5.78;1.20;;;;;;;13.61;75.68;102087.25;7388488;19;20010;-68
2022/10/06 02:54:51;;;;;;;7.93;0.88;;;;;;;13.59;76.08;102103.25;7387397;19;20466;-68
2022/10/06 02:57:17;;;;;;;8.85;0.50;;;;;;;13.57;75.87;102091.13;7388312;19;20018;-68
2022/10/06 02:59:44;;;;;;;8.10;0.40;;;;;;;13.56;75.67;102092.13;7388814;19;20479;-68
2022/10/06 03:02:17;;;;;;;11.35;0.50;;;;;;;13.54;75.47;102102.00;7387646;19;20023;-67
2022/10/06 03:04:44;;;;;;;10.45;0.50;;;;;;;13.51;75.49;102097.81;7386780;19;20036;-67
2022/10/06 03:07:10;;;;;;;7.82;0.50;;;;;;;13.51;76.65;102097.00;7388971;19;20014;-68
2022/10/06 03:09:37;;;;;;;9.43;0.32;;;;;;;13.49;76.05;102104.22;7386286;19;20018;-67
2022/10/06 03:12:04;;;;;;;10.20;0.82;;;;;;;13.43;75.75;102107.41;7388136;19;20003;-68
2022/10/06 03:14:31;;;;;;;11.10;0.73;;;;;;;13.40;76.52;102110.34;7389208;19;20506;-68
2022/10/06 03:16:58;;;;;;;11.43;0.68;;;;;;;13.35;75.74;102113.41;7389047;19;20035;-69
2022/10/06 03:19:25;;;;;;;13.88;1.15;;;;;;;13.38;76.52;102134.28;7383730;19;20022;-67
2022/10/06 03:21:51;;;;;;;6.53;0.30;;;;;;;13.42;77.04;102119.81;7389677;19;20011;-68
2022/10/06 03:24:18;;;;;;;8.50;0.60;;;;;;;13.40;76.02;102123.56;7387807;19;20038;-68
2022/10/06 03:26:49;;;;;;;5.93;1.10;;;;;;;13.38;76.72;102134.28;7387119;19;20014;-67
2022/10/06 03:29:16;;;;;;;10.80;0.63;;;;;;;13.39;76.77;102132.47;7384706;19;20018;-67
2022/10/06 03:31:43;;;;;;;8.65;1.20;;;;;;;13.39;76.58;102133.31;7388480;19;20007;-69
2022/10/06 03:34:09;;;;;;;8.35;0.85;;;;;;;13.40;77.38;102142.91;7387462;19;20022;-68
2022/10/06 03:36:36;;;;;;;10.85;0.65;;;;;;;13.43;76.54;102136.50;7387757;19;20336;-69
2022/10/06 03:39:04;;;;;;;9.13;0.65;;;;;;;13.44;75.68;102146.94;7387666;19;20486;-67
2022/10/06 03:41:34;;;;;;;5.95;0.30;;;;;;;13.38;75.63;102152.78;7385274;19;20030;-67
2022/10/06 03:44:01;;;;;;;5.07;0.30;;;;;;;13.34;75.81;102155.84;7385854;19;20014;-68
2022/10/06 03:46:30;;;;;;;8.05;1.02;;;;;;;13.34;76.58;102161.97;7387814;19;20021;-68
2022/10/06 03:48:58;;;;;;;13.07;0.50;;;;;;;13.32;76.04;102161.25;7384446;19;20015;-69
2022/10/06 03:51:30;;;;;;;9.80;0.70;;;;;;;13.33;76.36;102164.75;7388274;19;20010;-68
2022/10/06 03:53:58;;;;;;;6.70;0.30;;;;;;;13.32;76.55;102173.63;7386423;19;20280;-68
2022/10/06 03:56:27;;;;;;;8.27;0.70;;;;;;;13.33;75.91;102177.97;7384919;19;20295;-67
2022/10/06 03:58:59;;;;;;;2.78;0.20;;;;;;;13.33;76.03;102184.09;7387013;19;20039;-69
2022/10/06 04:01:35;;;;;;;11.43;1.00;;;;;;;13.29;76.57;102182.69;7387360;19;20018;-67
2022/10/06 04:04:04;;;;;;;6.97;0.35;;;;;;;13.25;76.43;102189.22;7385950;19;20377;-68
2022/10/06 04:06:33;;;;;;;6.18;0.68;;;;;;;13.21;76.52;102196.56;7386155;19;20022;-68
2022/10/06 04:09:00;;;;;;;4.35;0.40;;;;;;;13.18;76.44;102207.44;7385558;19;20075;-68
2022/10/06 04:11:30;;;;;;;9.52;1.17;;;;;;;13.15;76.79;102201.59;7385490;19;20022;-68
2022/10/06 04:13:59;;;;;;;12.65;0.73;;;;;;;13.17;77.44;102207.56;7387985;19;20034;-68
2022/10/06 04:16:31;;;;;;;5.40;0.50;;;;;;;13.17;77.06;102211.03;7385309;19;20039;-69
2022/10/06 04:19:00;;;;;;;8.77;0.60;;;;;;;13.15;76.60;102212.16;7384312;19;20423;-67
2022/10/06 04:21:29;;;;;;;8.18;0.30;;;;;;;13.12;76.21;102210.63;7384096;19;20038;-68
2022/10/06 04:23:58;;;;;;;8.48;0.35;;;;;;;13.08;76.55;102218.91;7386239;19;20061;-68
2022/10/06 04:26:31;;;;;;;7.45;0.50;;;;;;;13.06;77.55;102219.03;7384187;19;20019;-68
2022/10/06 04:28:59;;;;;;;6.80;0.38;;;;;;;13.08;77.86;102225.03;7385777;19;20018;-67
2022/10/06 04:31:29;;;;;;;9.00;0.60;;;;;;;13.07;77.00;102231.28;7385027;19;20022;-67
2022/10/06 04:33:58;;;;;;;7.28;0.55;;;;;;;13.06;77.11;102223.47;7384636;19;20027;-66
2022/10/06 04:36:31;;;;;;;8.05;0.38;;;;;;;13.06;77.09;102234.91;7384889;19;20035;-67
2022/10/06 04:39:01;;;;;;;7.53;0.55;;;;;;;13.07;77.26;102230.44;7384778;19;20153;-68
2022/10/06 04:41:31;;;;;;;3.85;0.65;;;;;;;13.11;77.65;102235.38;7384910;19;20458;-68
2022/10/06 04:43:58;;;;;;;9.40;0.50;;;;;;;13.13;77.27;102233.44;7384802;19;20019;-68
2022/10/06 04:46:27;;;;;;;8.60;0.32;;;;;;;13.12;76.93;102237.03;7386046;19;20330;-68
2022/10/06 04:49:09;;;;;;;6.70;0.30;;;;;;;13.06;76.44;102240.19;7382089;19;20010;-68
2022/10/06 04:51:45;;;;;;;9.27;0.85;;;;;;;12.97;77.11;102241.00;7386648;19;20025;-68
2022/10/06 04:54:13;;;;;;;7.05;0.80;;;;;;;12.96;78.08;102247.22;7384226;19;20014;-67
2022/10/06 04:56:39;;;;;;;5.15;0.50;;;;;;;12.97;77.95;102254.19;7381797;19;20435;-69
2022/10/06 04:59:06;;;;;;;9.20;0.77;;;;;;;12.96;77.76;102249.88;7385496;19;20014;-67
2022/10/06 05:01:35;;;;;;;5.72;1.00;;;;;;;12.95;77.37;102261.44;7383937;19;20007;-68
2022/10/06 05:04:03;;;;;;;4.68;0.40;;;;;;;12.96;77.35;102256.97;7383264;19;20027;-68
2022/10/06 05:06:33;;;;;;;5.18;0.93;;;;;;;13.00;78.04;102269.81;7385293;19;20022;-70
2022/10/06 05:09:03;;;;;;;12.40;0.60;;;;;;;12.95;77.41;102264.09;7382610;19;20046;-68
2022/10/06 05:11:30;;;;;;;8.20;0.60;;;;;;;12.92;77.64;102266.97;7383621;19;20006;-68
2022/10/06 05:13:58;;;;;;;8.98;0.47;;;;;;;12.90;77.47;102268.91;7385269;19;20463;-69
2022/10/06 05:16:27;;;;;;;14.07;1.45;;;;;;;12.85;77.74;102269.28;7389127;19;20061;-68
2022/10/06 05:18:54;;;;;;;6.10;0.40;;;;;;;12.89;78.80;102279.63;7389899;19;20031;-67
2022/10/06 05:21:26;;;;;;;5.18;0.40;;;;;;;12.92;78.09;102274.91;7391423;19;20014;-68
2022/10/06 05:23:53;;;;;;;10.32;0.47;;;;;;;12.94;77.89;102282.69;7392331;19;20006;-68
2022/10/06 05:26:22;;;;;;;8.35;0.40;;;;;;;12.97;78.34;102290.34;7389836;19;20014;-68
2022/10/06 05:28:50;;;;;;;6.05;0.28;;;;;;;12.99;78.14;102288.44;7390849;19;20021;-68
2022/10/06 05:31:28;;;;;;;5.30;0.40;;;;;;;12.98;77.79;102294.66;7391612;19;20015;-68
2022/10/06 05:33:56;;;;;;;8.82;0.60;;;;;;;13.01;78.11;102299.69;7387470;19;20038;-67
2022/10/06 05:36:28;;;;;;;11.73;0.50;;;;;;;13.00;78.27;102304.16;7390123;19;20042;-68
2022/10/06 05:38:56;;;;;;;9.38;2.22;;;;;;;13.02;78.39;102301.34;7390707;19;20019;-69
2022/10/06 05:41:25;;;;;;;7.13;0.30;;;;;;;13.04;79.23;102307.34;7388189;19;20357;-68
2022/10/06 05:43:52;;;;;;;7.63;0.40;;;;;;;13.02;78.28;102301.34;7391427;19;20042;-68
2022/10/06 05:46:30;;;;;;;5.32;0.50;;;;;;;13.01;78.18;102303.16;7390992;19;20015;-69
2022/10/06 05:49:03;;;;;;;6.95;0.40;;;;;;;13.02;78.29;102309.28;7389129;19;20373;-69
2022/10/06 05:51:32;;;;;;;8.38;1.00;;;;;;;12.99;78.46;102306.91;7391855;19;20014;-68
2022/10/06 05:54:00;;;;;;;9.50;0.50;;;;;;;12.99;78.57;102307.75;7390408;19;20408;-68
2022/10/06 05:56:29;;;;;;;6.25;0.60;;;;;;;12.98;78.43;102314.00;7391634;19;20014;-69
2022/10/06 05:58:57;;;;;;;8.43;0.40;;;;;;;12.95;78.32;102316.09;7390978;19;20044;-67
2022/10/06 06:01:27;;;;;;;6.80;0.93;;;;;;;12.93;78.36;102313.56;7388022;19;20015;-69
2022/10/06 06:04:00;;;;;;;6.88;0.50;;;;;;;12.92;78.63;102311.88;7387588;19;20017;-68
2022/10/06 06:06:32;;;;;;;4.60;0.82;;;;;;;12.94;78.81;102319.69;7388157;19;20014;-68
2022/10/06 06:09:14;;;;;;;6.60;0.65;;;;;;;12.95;78.74;102324.00;7389067;19;20022;-68
2022/10/06 06:11:53;;;;;;;11.27;0.80;;;;;;;13.00;79.46;102325.28;7390311;19;20014;-68
2022/10/06 06:15:59;;;;;;;8.43;0.47;;;;;;;13.02;79.30;102328.63;7391487;19;20042;-68
2022/10/06 06:17:10;;;;;;;5.53;0.50;;;;;;;12.98;78.12;102336.94;7388454;19;20014;-68
2022/10/06 06:19:37;;;;;;;10.95;0.60;;;;;;;12.90;77.94;102331.50;7389078;19;20042;-70
2022/10/06 06:22:04;;;;;;;5.95;0.40;;;;;;;12.86;78.53;102323.81;7391642;19;20467;-68
2022/10/06 06:24:31;;;;;;;8.85;0.40;;;;;;;12.85;78.78;102327.41;7387539;19;20014;-68
2022/10/06 06:26:57;;;;;;;9.70;0.50;;;;;;;12.88;78.75;102334.25;7385825;19;20115;-68
2022/10/06 06:29:24;;;;;;;13.30;1.27;;;;;;;12.90;79.01;102334.94;7387127;19;20015;-68
2022/10/06 06:31:51;;;;;;;7.57;0.40;;;;;;;12.92;78.79;102332.19;7390598;19;20389;-69
2022/10/06 06:34:18;;;;;;;13.10;0.60;;;;;;;12.93;78.40;102345.28;7388023;19;20018;-67
2022/10/06 06:36:52;;;;;;;5.85;0.47;;;;;;;12.92;78.25;102338.31;7391257;19;20007;-68
2022/10/06 06:39:20;;;;;;;8.32;0.50;;;;;;;12.90;78.26;102342.88;7388614;19;20022;-69
2022/10/06 06:41:49;;;;;;;5.43;0.32;;;;;;;12.88;78.33;102341.34;7387827;19;20015;-68
2022/10/06 06:44:16;;;;;;;11.85;2.15;;;;;;;12.90;78.92;102347.34;7383179;19;20393;-68
2022/10/06 06:46:47;;;;;;;14.70;1.00;;;;;;;12.90;80.13;102353.44;7392247;19;20014;-69
2022/10/06 06:49:16;;;;;;;10.48;0.70;;;;;;;12.90;80.13;102358.72;7384425;19;20006;-69
2022/10/06 06:51:48;;;;;;;6.75;0.80;;;;;;;12.90;80.25;102358.72;7391183;19;20132;-69
2022/10/06 06:54:17;;;;;;;8.65;0.60;;;;;;;12.95;80.17;102355.72;7387293;19;20015;-68
2022/10/06 06:56:47;;;;;;;6.78;0.80;;;;;;;12.96;78.86;102352.06;7385163;19;20011;-68
2022/10/06 06:59:14;;;;;;;13.32;0.70;;;;;;;12.96;78.21;102354.72;7387615;19;20479;-69
2022/10/06 07:01:45;;;;;;;8.80;0.90;;;;;;;12.92;78.80;102356.78;7385897;19;20011;-70
2022/10/06 07:04:15;;;;;;;13.30;1.15;;;;;;;12.95;79.26;102361.84;7385104;19;20471;-68
2022/10/06 07:06:52;;;;;;;12.75;1.45;;;;;;;12.94;78.18;102365.44;7387493;19;20018;-68
2022/10/06 07:09:19;;;;;;;9.55;0.63;;;;;;;12.97;78.90;102370.44;7383314;19;20017;-68
2022/10/06 07:11:46;;;;;;;11.45;0.60;;;;;;;13.00;78.66;102367.56;7389092;19;20025;-68
2022/10/06 07:14:13;;;;;;;6.55;0.63;;;;;;;13.04;78.36;102374.25;7388099;19;20568;-68
2022/10/06 07:25:24;;;;;;;8.63;0.80;;;;;;;13.06;77.74;102390.81;7386738;19;20219;-69
2022/10/06 07:27:52;;;;;;;12.75;0.60;;;;;;;13.07;78.37;102389.84;7388362;19;20015;-67
2022/10/06 07:30:24;;;;;;;9.23;0.50;;;;;;;13.11;78.12;102399.22;7384214;19;20037;-67
2022/10/06 07:32:52;;;;;;;10.05;0.70;;;;;;;13.15;77.64;102399.81;7387518;19;20567;-67
2022/10/06 07:35:20;;;;;;;10.18;0.75;;;;;;;13.19;78.10;102395.94;7385453;19;20014;-68
2022/10/06 07:37:50;;;;;;;9.63;0.82;;;;;;;13.24;77.62;102405.16;7385698;19;20011;-68
2022/10/06 07:40:17;;;;;;;10.20;1.00;;;;;;;13.28;77.20;102406.56;7384641;19;20043;-68
2022/10/06 07:42:47;;;;;;;13.40;1.08;;;;;;;13.31;77.19;102407.28;7387021;19;20021;-69
2022/10/06 07:45:37;;;;;;;12.35;0.90;;;;;;;13.33;77.11;102413.25;7384225;19;20098;-67
2022/10/06 07:48:13;;;;;;;16.20;2.33;;;;;;;13.36;77.06;102413.81;7387876;19;20018;-68
2022/10/06 07:50:41;;;;;;;;;;;;;;;13.43;77.44;102419.44;7384438;19;20295;-68
2022/10/06 07:53:09;;;;;;;11.60;2.33;;;;;;;13.48;76.90;102415.41;7327643;19;20338;-68
2022/10/06 07:55:39;;;;;;;14.40;1.23;;;;;;;13.53;76.79;102422.94;7357153;19;20018;-67
2022/10/06 07:58:17;;;;;;;9.63;0.63;;;;;;;13.56;76.29;102420.88;7382003;19;20045;-67
2022/10/06 08:00:45;;;;;;;16.88;1.50;;;;;;;13.64;78.61;102422.88;7382027;19;20026;-68
2022/10/06 08:03:16;;;;;;;12.77;0.85;;;;;;;13.86;84.79;102422.69;7384493;19;20596;-68
2022/10/06 08:05:48;;;;;;;9.52;1.00;;;;;;;14.03;84.43;102423.81;7383250;19;20587;-68
2022/10/06 08:08:16;;;;;;;10.85;1.08;;;;;;;14.06;79.68;102426.22;7385067;19;20095;-67
2022/10/06 08:10:51;;;;;;;10.85;0.50;;;;;;;14.17;80.68;102425.25;7381450;19;20014;-68
2022/10/06 08:13:18;;;;;;;11.75;0.80;;;;;;;14.28;80.05;102431.25;7385520;19;20357;-68
2022/10/06 08:15:46;;;;;;;9.55;0.70;;;;;;;14.35;76.81;102431.53;7383798;19;20014;-68
2022/10/06 08:18:13;;;;;;;8.23;0.63;;;;;;;14.38;75.40;102426.00;7384371;19;20006;-70
2022/10/06 08:20:59;;;;;;;8.27;1.23;;;;;;;14.44;77.36;102425.44;7382561;19;20720;-68
2022/10/06 08:23:26;;;;;;;6.13;0.47;;;;;;;14.43;76.06;102423.75;7384157;19;20043;-69
2022/10/06 08:25:55;;;;;;;14.13;1.02;;;;;;;14.44;74.94;102422.78;7380581;19;20134;-67
2022/10/06 08:28:23;;;;;;;10.82;0.70;;;;;;;14.44;75.11;102436.03;7386402;19;20683;-68
2022/10/06 08:30:51;;;;;;;6.22;0.90;;;;;;;14.45;75.26;102433.25;7383387;19;20031;-68
2022/10/06 08:33:18;;;;;;;11.02;0.63;;;;;;;14.47;75.28;102427.84;7383053;19;20018;-68
2022/10/06 08:35:47;;;;;;;8.07;0.60;;;;;;;14.52;75.43;102431.75;7382490;19;20014;-68
2022/10/06 08:38:14;;;;;;;12.18;0.60;;;;;;;14.54;74.46;102434.22;7386174;19;20018;-69
2022/10/06 08:40:42;;;;;;;6.28;0.50;;;;;;;14.58;74.10;102429.53;7382819;19;20022;-68
2022/10/06 08:43:18;;;;;;;11.13;0.70;;;;;;;14.64;73.74;102431.59;7386284;19;20018;-67
2022/10/06 08:45:46;;;;;;;13.95;1.52;;;;;;;14.71;73.67;102438.00;7384645;19;20553;-68
2022/10/06 08:48:18;;;;;;;8.70;0.85;;;;;;;14.75;73.56;102445.53;7386309;19;20110;-68
2022/10/06 08:51:02;;;;;;;11.13;1.03;;;;;;;14.77;73.05;102433.00;7379247;19;20597;-68
2022/10/06 08:53:45;;;;;;;11.88;1.15;;;;;;;14.79;72.85;102431.03;7387103;19;20145;-68
2022/10/06 08:56:18;;;;;;;13.30;1.08;;;;;;;14.86;72.87;102434.81;7382284;19;20730;-68
2022/10/06 08:59:02;;;;;;;10.98;0.75;;;;;;;14.93;72.86;102437.72;7384880;19;20640;-67
2022/10/06 09:01:40;;;;;;;20.13;1.63;;;;;;;14.97;73.04;102439.97;7385743;19;20053;-67
2022/10/06 09:04:12;;;;;;;11.15;1.33;;;;;;;15.03;71.85;102443.84;7384083;19;20042;-68
2022/10/06 09:07:02;;;;;;;15.98;0.50;;;;;;;15.06;71.39;102446.22;7384593;19;20046;-68
2022/10/06 09:09:38;;;;;;;12.05;0.93;;;;;;;15.13;71.82;102443.84;7382211;19;20353;-67
2022/10/06 09:12:28;;;;;;;9.52;0.70;;;;;;;15.20;72.12;102451.06;7384460;19;20027;-69
2022/10/06 09:15:07;;;;;;;9.00;0.70;;;;;;;15.25;71.44;102450.63;7383805;19;20384;-69
2022/10/06 09:17:39;;;;;;;9.38;0.50;;;;;;;15.29;71.27;102458.16;7384949;19;20011;-67
2022/10/06 09:20:29;;;;;;;11.75;1.05;;;;;;;15.38;71.91;102454.66;7382657;19;20062;-67
2022/10/06 09:22:56;;;;;;;7.30;0.50;;;;;;;15.44;71.39;102458.53;7385717;19;20046;-66
2022/10/06 09:25:27;;;;;;;19.42;0.98;;;;;;;15.50;70.45;102454.47;7384117;19;20034;-67
2022/10/06 09:27:56;;;;;;;14.90;0.50;;;;;;;15.54;70.27;102462.06;7381543;19;20019;-68
2022/10/06 09:30:23;;;;;;;11.95;0.93;;;;;;;15.59;69.68;102461.63;7382161;19;20540;-68
2022/10/06 09:32:58;;;;;;;14.68;1.50;;;;;;;15.66;70.69;102462.69;7384467;19;20053;-68
2022/10/06 09:35:28;;;;;;;15.13;1.42;;;;;;;15.71;69.76;102466.59;7383396;19;20035;-69
2022/10/06 09:38:00;;;;;;;14.32;1.38;;;;;;;15.76;69.72;102468.81;7382109;19;20019;-68
2022/10/06 09:40:39;;;;;;;11.13;1.48;;;;;;;15.82;69.73;102465.56;7380325;19;20454;-68
2022/10/06 09:43:19;;;;;;;8.00;0.93;;;;;;;15.91;70.82;102471.81;7384162;19;20586;-68
2022/10/06 09:45:46;;;;;;;10.98;0.43;;;;;;;15.96;70.33;102462.41;7382724;19;20380;-69
2022/10/06 09:48:24;;;;;;;8.82;0.40;;;;;;;16.03;69.62;102470.63;7384146;19;20638;-68
2022/10/06 09:51:16;;;;;;;13.27;1.60;;;;;;;16.08;69.15;102463.91;7380815;19;20043;-68
2022/10/06 09:54:01;;;;;;;13.73;1.02;;;;;;;16.14;70.15;102470.44;7383001;19;20022;-68
2022/10/06 09:56:31;;;;;;;11.57;1.00;;;;;;;16.23;72.00;102450.94;7382963;19;20014;-67
2022/10/06 09:59:00;;;;;;;11.50;1.40;;;;;;;16.29;70.61;102465.47;7318829;19;20058;-69
2022/10/06 10:01:30;;;;;;;15.40;0.82;;;;;;;16.34;70.42;102463.19;7377941;19;20017;-69
2022/10/06 10:04:11;;;;;;;12.77;0.80;;;;;;;16.39;70.14;102467.06;7387046;19;20011;-67
2022/10/06 10:06:47;;;;;;;11.07;0.60;;;;;;;16.44;68.80;102469.28;7388596;19;20465;-69
2022/10/06 10:09:18;;;;;;;11.95;0.60;;;;;;;16.49;68.09;102474.97;7387389;19;20041;-69
2022/10/06 10:12:26;;;;;;;9.80;0.63;;;;;;;16.56;68.70;102473.38;7383990;19;20010;-68
2022/10/06 10:15:04;;;;;;;9.68;0.70;;;;;;;16.62;67.44;102476.28;7386500;19;20394;-68
2022/10/06 10:18:04;;;;;;;8.93;0.90;;;;;;;16.66;67.70;102467.03;7370491;19;20718;-68
2022/10/06 10:20:35;;;;;;;11.50;1.13;;;;;;;16.71;68.81;102474.53;7386098;19;20010;-68
2022/10/06 10:23:24;;;;;;;11.27;0.60;;;;;;;16.76;67.16;102463.47;7390052;19;20019;-68
2022/10/06 10:26:08;;;;;;;10.18;0.75;;;;;;;16.80;68.06;102455.03;7387301;19;20031;-67
2022/10/06 10:28:43;;;;;;;10.57;0.90;;;;;;;16.84;67.21;102460.88;7388980;19;20007;-68
2022/10/06 10:31:40;;;;;;;10.82;0.60;;;;;;;16.89;68.24;102466.56;7380390;19;20041;-68
2022/10/06 10:34:21;;;;;;;6.70;0.60;;;;;;;16.93;66.95;102467.94;7361015;19;20018;-68
2022/10/06 10:36:53;;;;;;;;;;;;;;;16.96;66.54;102451.69;7380308;19;20089;-70
2022/10/06 10:39:32;;;;;;;9.98;1.10;;;;;;;16.98;67.54;102458.50;7381776;19;19914;-68
2022/10/06 10:42:04;;;;;;;8.45;0.47;;;;;;;17.03;68.03;102458.88;7385476;19;20018;-68
2022/10/06 10:44:36;;;;;;;10.37;1.00;;;;;;;17.07;66.60;102448.75;7383596;19;20513;-68
2022/10/06 10:47:17;;;;;;;11.15;0.60;;;;;;;17.12;67.28;102443.78;7385249;19;20014;-68
2022/10/06 10:49:52;;;;;;;10.40;0.70;;;;;;;17.19;68.58;102457.31;7370586;19;20447;-68
2022/10/06 10:52:30;;;;;;;12.32;1.30;;;;;;;17.21;66.44;102456.19;7386567;19;20578;-68
2022/10/06 10:55:25;;;;;;;12.80;1.45;;;;;;;17.24;66.97;102458.53;7381462;19;20053;-68
2022/10/06 10:57:57;;;;;;;11.98;0.95;;;;;;;17.29;66.03;102458.91;7379790;19;20022;-67
2022/10/06 11:00:27;;;;;;;8.23;0.50;;;;;;;17.32;66.56;102453.25;7377687;19;20025;-67
2022/10/06 11:02:57;;;;;;;9.80;0.70;;;;;;;17.37;65.47;102452.81;7382139;19;20014;-68
2022/10/06 11:05:59;;;;;;;13.18;0.55;;;;;;;17.40;64.96;102445.34;7379661;19;20015;-68
2022/10/06 11:08:41;;;;;;;12.30;0.57;;;;;;;17.43;65.06;102449.50;7378770;19;20014;-68
2022/10/06 11:11:17;;;;;;;9.45;0.65;;;;;;;17.45;65.16;102445.69;7379003;19;20018;-68
2022/10/06 11:13:49;;;;;;;11.18;0.60;;;;;;;17.47;64.60;102449.00;7380297;19;20362;-69
2022/10/06 11:16:44;;;;;;;11.27;0.70;;;;;;;17.54;64.80;102459.88;7382771;19;20050;-67
2022/10/06 11:19:29;;;;;;;9.02;0.50;;;;;;;17.54;63.98;102447.41;7381869;19;20011;-67
2022/10/06 11:22:13;;;;;;;8.98;0.70;;;;;;;17.59;64.07;102456.72;7382963;19;20022;-68
2022/10/06 11:25:03;;;;;;;12.15;0.70;;;;;;;17.60;64.16;102453.97;7380185;19;20663;-68
2022/10/06 11:27:53;;;;;;;7.55;0.60;;;;;;;17.64;63.43;102454.47;7378394;19;20716;-69
2022/10/06 11:30:25;;;;;;;7.40;0.60;;;;;;;17.68;63.94;102448.66;7379871;19;20760;-67
2022/10/06 11:33:15;;;;;;;9.75;0.70;;;;;;;17.75;63.58;102451.53;7382385;19;20014;-73
2022/10/06 11:35:45;;;;;;;11.45;0.43;;;;;;;17.76;62.83;102446.06;7378424;19;20018;-68
2022/10/06 11:38:15;;;;;;;7.32;0.73;;;;;;;17.78;62.78;102448.53;7377816;19;20361;-68
2022/10/06 11:41:08;;;;;;;10.73;0.55;;;;;;;17.83;62.86;102448.88;7378926;19;20022;-68
2022/10/06 11:44:02;;;;;;;10.23;0.50;;;;;;;17.92;63.75;102450.63;7381015;19;20010;-68
2022/10/06 11:46:52;;;;;;;7.07;0.50;;;;;;;17.99;62.21;102445.47;7384012;19;20011;-67
2022/10/06 11:49:28;;;;;;;14.07;0.80;;;;;;;18.03;62.74;102442.31;7382522;19;20010;-67
2022/10/06 11:51:56;;;;;;;10.70;1.02;;;;;;;18.07;62.88;102437.50;7386186;19;20042;-67
2022/10/06 11:55:06;;;;;;;8.13;0.60;;;;;;;18.13;63.01;102434.19;7384501;19;20018;-68